Time;durP1;ratioP1;P1;durP2;ratioP2;P2;SDS_P1;SDS_P2;PMS_P1;PMS_P2;Temp;Humidity;BMP_temperature;BMP_pressure;BME280_temperature;BME280_humidity;BME280_pressure;Samples;Min_cycle;Max_cycle;Signal;HPM_P1;HPM_P2
2024/04/17 00:01:22;;;;;;;2.47;2.20;;;;;;;6.14;100.00;150213.94;11139877;26;20011;-71
2024/04/17 00:06:24;;;;;;;2.65;2.45;;;;;;;5.99;100.00;150176.66;11139523;26;20348;-71
2024/04/17 00:11:26;;;;;;;2.35;2.05;;;;;;;6.10;100.00;150202.34;11140032;26;20011;-71
2024/04/17 00:16:28;;;;;;;2.30;2.03;;;;;;;6.12;100.00;150208.81;11139645;26;20023;-71
2024/04/17 00:21:29;;;;;;;2.00;1.80;;;;;;;6.07;100.00;150197.25;11139271;26;20507;-71
2024/04/17 00:26:31;;;;;;;2.10;1.90;;;;;;;5.92;100.00;150158.63;11137241;26;20460;-71
2024/04/17 00:31:33;;;;;;;3.10;2.15;;;;;;;6.06;100.00;150194.66;11138600;26;20000;-71
2024/04/17 00:36:35;;;;;;;2.15;1.95;;;;;;;6.16;100.00;150217.81;11139331;26;20020;-71
2024/04/17 00:48:26;;;;;;;2.00;1.60;;;;;;;5.69;100.00;150099.41;11144108;26;20456;-72
2024/04/17 00:53:32;;;;;;;1.77;1.58;;;;;;;5.78;100.00;150122.56;11138010;26;20044;-72
2024/04/17 00:58:35;;;;;;;1.83;1.30;;;;;;;5.67;100.00;150095.56;11138019;26;20019;-71
2024/04/17 01:03:37;;;;;;;1.10;1.00;;;;;;;5.63;100.00;150084.00;11137608;26;20004;-72
2024/04/17 01:08:39;;;;;;;1.38;1.27;;;;;;;5.76;100.00;150117.44;11137883;26;20036;-71
2024/04/17 01:13:41;;;;;;;1.08;0.90;;;;;;;5.49;100.00;150049.22;11137720;26;19996;-71
2024/04/17 01:18:44;;;;;;;0.70;0.70;;;;;;;5.43;100.00;150035.09;11137996;26;20014;-70
2024/04/17 01:23:53;;;;;;;1.10;0.98;;;;;;;5.28;100.00;149996.53;11137720;26;20530;-70
2024/04/17 01:28:54;;;;;;;1.25;0.90;;;;;;;5.39;100.00;150023.50;11137426;26;20000;-71
2024/04/17 01:33:56;;;;;;;1.02;0.63;;;;;;;5.38;100.00;150020.97;11137241;26;20023;-70
2024/04/17 01:38:58;;;;;;;1.88;0.90;;;;;;;5.32;100.00;150006.81;11137214;26;20032;-71
2024/04/17 01:44:00;;;;;;;0.80;0.73;;;;;;;5.18;100.00;149970.78;11136470;26;20008;-71
2024/04/17 01:49:02;;;;;;;1.38;0.80;;;;;;;5.06;100.00;149941.25;11135767;26;20004;-70
2024/04/17 01:54:04;;;;;;;0.80;0.80;;;;;;;5.03;100.00;149934.78;11136386;26;20054;-71
2024/04/17 01:59:07;;;;;;;0.93;0.90;;;;;;;5.05;100.00;149939.97;11136473;26;20000;-70
2024/04/17 02:04:09;;;;;;;1.15;0.80;;;;;;;4.98;100.00;149920.66;11134852;26;20001;-71
2024/04/17 02:09:11;;;;;;;0.70;0.60;;;;;;;5.04;100.00;149937.34;11136237;26;20453;-71
2024/04/17 02:14:13;;;;;;;2.35;0.80;;;;;;;4.77;100.00;149867.94;11135607;26;20004;-71
2024/04/17 02:19:15;;;;;;;1.55;0.95;;;;;;;4.94;100.00;149911.66;11135509;26;20001;-71
2024/04/17 02:24:17;;;;;;;1.48;0.93;;;;;;;4.66;100.00;149840.97;11135457;26;20001;-71
2024/04/17 02:29:18;;;;;;;1.23;0.90;;;;;;;4.61;100.00;149828.13;11135810;26;20011;-71
2024/04/17 02:34:22;;;;;;;0.70;0.70;;;;;;;4.60;100.00;149824.25;11135165;26;20027;-71
2024/04/17 02:39:24;;;;;;;0.60;0.60;;;;;;;4.69;100.00;149847.38;11135787;26;20459;-71
2024/04/17 02:44:26;;;;;;;1.65;0.95;;;;;;;4.51;100.00;149803.69;11134183;26;20352;-70
2024/04/17 02:49:28;;;;;;;1.98;0.70;;;;;;;4.56;100.00;149815.28;11134556;26;20000;-70
2024/04/17 02:54:29;;;;;;;1.00;0.90;;;;;;;4.54;100.00;149811.41;11133207;26;20014;-70
2024/04/17 02:59:32;;;;;;;1.00;0.90;;;;;;;4.55;100.00;149812.69;11134215;26;20032;-71
2024/04/17 03:04:34;;;;;;;2.40;2.20;;;;;;;4.57;100.00;149817.84;11142252;26;20430;-71
2024/04/17 03:09:36;;;;;;;1.52;0.93;;;;;;;4.57;100.00;149816.56;11141737;26;20461;-71
2024/04/17 03:14:38;;;;;;;1.00;0.90;;;;;;;4.64;100.00;149835.81;11141363;26;20164;-71
2024/04/17 03:19:40;;;;;;;1.20;0.70;;;;;;;4.53;100.00;149808.84;11141793;26;20000;-71
2024/04/17 03:24:42;;;;;;;1.10;0.90;;;;;;;4.60;100.00;149825.53;11138995;26;20004;-70
2024/04/17 03:29:45;;;;;;;1.17;0.75;;;;;;;4.59;100.00;149821.69;11138612;26;20483;-71
2024/04/17 03:34:47;;;;;;;3.83;1.08;;;;;;;4.67;100.00;149842.25;11140796;26;20344;-72
2024/04/17 03:39:49;;;;;;;1.67;1.20;;;;;;;4.78;100.00;149871.84;11140429;26;20004;-71
2024/04/17 03:44:51;;;;;;;1.10;0.90;;;;;;;4.81;100.00;149878.25;11141716;26;20031;-70
2024/04/17 03:49:54;;;;;;;1.10;1.00;;;;;;;4.67;100.00;149842.25;11141057;26;20074;-70
2024/04/17 03:54:56;;;;;;;0.85;0.80;;;;;;;4.52;100.00;149805.00;11140862;26;20081;-71
2024/04/17 03:59:57;;;;;;;1.35;1.13;;;;;;;4.59;100.00;149821.69;11140164;26;20000;-71
2024/04/17 04:04:59;;;;;;;1.55;1.15;;;;;;;4.78;100.00;149870.50;11138321;26;20016;-70
2024/04/17 04:10:01;;;;;;;1.40;0.98;;;;;;;4.53;100.00;149807.56;11139802;26;20008;-70
2024/04/17 04:15:04;;;;;;;2.00;1.30;;;;;;;4.56;100.00;149815.28;11137879;26;20431;-72
2024/04/17 04:20:06;;;;;;;1.85;1.10;;;;;;;4.70;100.00;149851.28;11138237;26;20000;-71
2024/04/17 04:25:08;;;;;;;2.08;1.70;;;;;;;4.54;100.00;149810.13;11139640;26;20471;-72
2024/04/17 04:30:10;;;;;;;2.05;1.00;;;;;;;4.36;100.00;149765.16;11139171;26;20004;-71
2024/04/17 04:35:12;;;;;;;2.05;1.20;;;;;;;4.50;100.00;149801.13;11139723;26;20356;-71
2024/04/17 04:40:14;;;;;;;2.60;1.25;;;;;;;4.60;100.00;149824.25;11139081;26;19996;-70
2024/04/17 04:45:16;;;;;;;3.35;1.23;;;;;;;4.65;100.00;149838.44;11139151;26;20007;-71
2024/04/17 04:50:18;;;;;;;2.90;1.10;;;;;;;4.61;100.00;149828.13;11138771;26;20008;-71
2024/04/17 04:55:20;;;;;;;1.30;1.20;;;;;;;4.74;100.00;149860.28;11138991;26;20014;-72
2024/04/17 05:00:21;;;;;;;1.85;1.20;;;;;;;4.50;100.00;149799.84;11138529;26;20420;-71
2024/04/17 05:05:23;;;;;;;2.20;1.40;;;;;;;4.45;100.00;149788.28;11137267;26;20008;-72
2024/04/17 05:10:25;;;;;;;4.15;2.20;;;;;;;4.80;100.00;149876.97;11138852;26;20045;-71
2024/04/17 05:15:27;;;;;;;2.28;1.77;;;;;;;4.75;100.00;149864.13;11139937;26;20036;-72
2024/04/17 05:20:30;;;;;;;1.70;1.52;;;;;;;4.96;100.00;149916.84;11136641;26;20000;-71
2024/04/17 05:25:32;;;;;;;3.45;1.83;;;;;;;5.07;100.00;149943.81;11136161;26;20000;-71
2024/04/17 05:30:34;;;;;;;1.55;1.10;;;;;;;5.17;98.97;149968.22;11135994;26;20337;-72
2024/04/17 05:35:36;;;;;;;1.25;1.10;;;;;;;5.12;98.97;149956.66;11137004;26;20032;-71
2024/04/17 05:40:37;;;;;;;1.10;1.00;;;;;;;5.00;100.00;149925.78;11136977;26;20468;-71
2024/04/17 05:45:40;;;;;;;2.10;1.30;;;;;;;4.99;98.12;149924.50;11136219;26;20077;-71
2024/04/17 05:50:42;;;;;;;3.38;1.10;;;;;;;4.89;99.45;149897.53;11137529;26;19996;-71
2024/04/17 05:55:43;;;;;;;1.15;1.05;;;;;;;5.22;97.85;149981.06;11137250;26;20078;-71
2024/04/17 06:00:45;;;;;;;1.13;1.02;;;;;;;5.10;98.24;149950.25;11136449;26;19997;-71
2024/04/17 06:05:47;;;;;;;1.23;1.13;;;;;;;5.34;97.06;150010.66;11136177;26;20004;-71
2024/04/17 06:10:49;;;;;;;1.00;0.85;;;;;;;5.61;94.43;150080.09;11136091;26;20000;-71
2024/04/17 06:15:51;;;;;;;1.33;1.20;;;;;;;5.87;93.20;150144.41;11136641;26;20016;-71
2024/04/17 06:20:53;;;;;;;1.13;1.02;;;;;;;6.00;91.27;150177.94;11136251;26;20042;-71
2024/04/17 06:25:55;;;;;;;2.72;0.90;;;;;;;6.09;90.39;150201.09;11104776;26;20011;-71
2024/04/17 06:30:57;;;;;;;1.10;0.90;;;;;;;5.94;87.27;150163.78;11136177;26;20012;-71
2024/04/17 06:35:59;;;;;;;0.82;0.82;;;;;;;5.85;89.42;150139.31;11136943;26;20043;-72
2024/04/17 06:41:01;;;;;;;1.00;0.90;;;;;;;6.03;88.10;150186.94;11143106;26;20074;-72
2024/04/17 06:46:03;;;;;;;1.55;0.90;;;;;;;6.03;87.69;150186.94;11142608;26;20325;-71
2024/04/17 06:51:05;;;;;;;2.03;1.00;;;;;;;6.31;85.72;150257.69;11143329;26;20000;-71
2024/04/17 06:56:07;;;;;;;1.63;0.90;;;;;;;6.44;85.76;150289.88;11142431;26;20019;-71
2024/04/17 07:01:09;;;;;;;1.10;1.00;;;;;;;6.41;85.92;150282.13;11143230;26;20007;-71
2024/04/17 07:06:11;;;;;;;0.73;0.73;;;;;;;6.40;85.68;150279.56;11142557;26;20008;-71
2024/04/17 07:11:13;;;;;;;0.75;0.60;;;;;;;6.43;84.22;150286.03;11142349;26;20046;-71
2024/04/17 07:16:15;;;;;;;0.95;0.80;;;;;;;6.43;84.06;150287.31;11142002;26;20004;-71
2024/04/17 07:21:17;;;;;;;1.48;0.98;;;;;;;6.45;84.48;150291.16;11140275;26;20015;-71
2024/04/17 07:26:18;;;;;;;1.15;1.00;;;;;;;6.53;82.74;150313.03;11142642;26;20001;-71
2024/04/17 07:31:20;;;;;;;1.83;1.05;;;;;;;6.21;84.44;150230.69;11144199;26;20000;-72
2024/04/17 07:36:22;;;;;;;0.70;0.65;;;;;;;6.37;84.00;150270.56;11143287;26;20373;-71
2024/04/17 07:41:24;;;;;;;2.88;1.30;;;;;;;6.70;84.66;150354.25;11143947;26;20011;-71
2024/04/17 07:46:26;;;;;;;1.38;0.80;;;;;;;7.38;81.02;150525.47;11141087;26;20011;-71
2024/04/17 07:51:28;;;;;;;1.60;1.00;;;;;;;8.16;77.08;150722.63;11142219;26;20341;-72
2024/04/17 07:56:30;;;;;;;1.55;0.90;;;;;;;7.47;77.54;150548.66;11142300;26;20016;-71
2024/04/17 08:01:32;;;;;;;1.83;1.13;;;;;;;7.97;77.24;150676.22;11141512;26;20457;-71
2024/04/17 08:06:34;;;;;;;0.77;0.70;;;;;;;8.09;71.53;150707.13;11141627;26;20016;-72
2024/04/17 08:11:36;;;;;;;0.90;0.60;;;;;;;8.32;71.86;150763.84;11147689;26;20019;-71
2024/04/17 08:16:39;;;;;;;0.90;0.70;;;;;;;8.18;73.68;150729.03;11177917;26;20378;-71
2024/04/17 08:21:45;;;;;;;0.80;0.60;;;;;;;8.87;70.30;150903.13;11149881;26;20004;-71
2024/04/17 08:26:48;;;;;;;1.10;0.52;;;;;;;8.79;72.03;150883.78;11213046;26;20007;-72
2024/04/17 08:31:50;;;;;;;0.73;0.73;;;;;;;8.90;68.82;150910.88;11195450;26;20378;-71
2024/04/17 08:36:52;;;;;;;2.65;0.70;;;;;;;9.18;69.80;150980.53;11143310;26;20008;-72
2024/04/17 08:42:06;;;;;;;1.60;0.82;;;;;;;9.94;65.52;151172.75;11118806;26;20000;-72
2024/04/17 08:47:10;;;;;;;0.60;0.60;;;;;;;9.26;67.17;151001.16;11126664;26;20000;-71
2024/04/17 08:52:12;;;;;;;2.22;0.85;;;;;;;8.82;68.04;150890.25;11212191;26;20007;-72
2024/04/17 08:57:15;;;;;;;1.88;0.82;;;;;;;8.69;69.29;150858.00;11195828;26;20078;-73
2024/04/17 09:02:17;;;;;;;0.73;0.63;;;;;;;8.96;68.54;150925.06;11140950;26;20290;-72
2024/04/17 09:07:20;;;;;;;0.85;0.68;;;;;;;8.89;69.85;150907.00;11140350;26;20403;-71
2024/04/17 09:12:23;;;;;;;1.30;0.88;;;;;;;9.31;67.68;151014.06;11141252;26;20027;-71
2024/04/17 09:17:25;;;;;;;0.40;0.40;;;;;;;9.15;68.81;150972.78;11078121;26;20001;-71
2024/04/17 09:22:31;;;;;;;1.05;0.40;;;;;;;8.94;69.37;150919.88;11099910;26;20012;-73
2024/04/17 09:27:33;;;;;;;2.50;0.82;;;;;;;9.10;67.60;150961.16;11138434;26;20012;-71
2024/04/17 09:32:35;;;;;;;0.82;0.65;;;;;;;9.03;69.18;150944.44;11191534;26;20036;-72
2024/04/17 09:37:38;;;;;;;1.38;0.50;;;;;;;9.14;68.27;150970.19;11209088;26;19999;-71
2024/04/17 09:42:43;;;;;;;0.82;0.50;;;;;;;8.73;68.39;150868.34;11137978;26;20077;-70
2024/04/17 09:47:49;;;;;;;0.47;0.40;;;;;;;9.93;66.95;151170.19;11139320;26;20014;-71
2024/04/17 09:52:54;;;;;;;0.90;0.50;;;;;;;10.70;63.63;151365.13;11138534;26;20000;-71
2024/04/17 09:57:57;;;;;;;1.30;0.60;;;;;;;11.10;59.94;151468.44;11188892;26;20014;-72
2024/04/17 10:03:01;;;;;;;0.90;0.50;;;;;;;11.47;57.63;151561.50;11211891;26;20015;-71
2024/04/17 10:08:04;;;;;;;1.05;0.70;;;;;;;11.18;55.47;151487.84;11211764;26;20072;-72
2024/04/17 10:13:08;;;;;;;2.25;0.70;;;;;;;10.02;59.00;151194.69;11218412;26;20015;-71
2024/04/17 10:18:10;;;;;;;0.98;0.70;;;;;;;10.04;61.22;151199.84;11218168;26;20052;-71
2024/04/17 10:23:14;;;;;;;1.17;0.57;;;;;;;10.02;59.81;151193.41;11217673;26;20463;-71
2024/04/17 10:28:19;;;;;;;0.50;0.40;;;;;;;10.42;57.94;151295.44;11218787;26;20330;-71
2024/04/17 10:33:31;;;;;;;0.40;0.40;;;;;;;9.67;61.34;151104.38;11147971;26;20012;-71
2024/04/17 10:38:34;;;;;;;1.13;0.80;;;;;;;9.54;64.17;151072.09;11143623;26;20453;-70
2024/04/17 10:43:41;;;;;;;2.20;0.60;;;;;;;10.41;64.20;151292.84;11144020;26;20037;-70
2024/04/17 10:48:45;;;;;;;0.93;0.50;;;;;;;11.23;58.06;151499.47;11144289;26;20529;-72
2024/04/17 10:53:48;;;;;;;0.88;0.57;;;;;;;10.89;57.50;151412.91;11143662;26;20015;-71
2024/04/17 10:58:50;;;;;;;1.17;0.40;;;;;;;10.90;59.52;151416.81;11144040;26;20078;-70
2024/04/17 11:03:52;;;;;;;2.78;0.77;;;;;;;10.82;60.05;151397.44;11143701;26;20004;-71
2024/04/17 11:08:54;;;;;;;0.52;0.50;;;;;;;10.60;56.68;151341.91;11143670;26;20008;-75
2024/04/17 11:14:13;;;;;;;0.90;0.50;;;;;;;10.20;57.59;151238.56;11143748;26;20389;-71
2024/04/17 11:19:15;;;;;;;0.60;0.60;;;;;;;11.03;52.32;151449.09;11143090;26;19996;-71
2024/04/17 11:24:18;;;;;;;0.93;0.55;;;;;;;11.58;53.24;151588.59;11141088;26;20008;-72
2024/04/17 11:29:21;;;;;;;1.45;0.73;;;;;;;11.86;50.65;151661.06;11154054;26;19999;-72
2024/04/17 11:34:37;;;;;;;0.80;0.38;;;;;;;12.01;47.62;151697.22;11215918;26;20008;-71
2024/04/17 11:39:39;;;;;;;0.55;0.50;;;;;;;12.26;50.20;151760.53;11214310;26;20462;-71
2024/04/17 11:44:47;;;;;;;1.80;0.60;;;;;;;13.07;46.35;151967.47;11215171;26;19995;-72
2024/04/17 11:49:48;;;;;;;0.88;0.40;;;;;;;13.47;51.45;152068.44;11215404;26;20004;-71
2024/04/17 11:54:50;;;;;;;0.52;0.40;;;;;;;12.73;48.00;151880.81;11215017;26;19999;-71
2024/04/17 11:59:52;;;;;;;0.47;0.40;;;;;;;11.57;46.96;151586.03;11215369;26;20335;-70
2024/04/17 12:04:54;;;;;;;1.23;0.32;;;;;;;11.77;48.63;151636.41;11213034;26;20007;-72
2024/04/17 12:09:56;;;;;;;0.55;0.50;;;;;;;12.25;48.66;151759.25;11214526;26;20068;-71
2024/04/17 12:14:58;;;;;;;1.10;0.40;;;;;;;12.52;46.90;151827.78;11214616;26;20015;-71
2024/04/17 12:20:00;;;;;;;0.52;0.35;;;;;;;11.91;49.33;151672.69;11214335;26;20057;-72
2024/04/17 12:30:23;;;;;;;0.77;0.40;;;;;;;11.77;49.85;151636.41;11213032;26;20000;-71
2024/04/17 12:35:25;;;;;;;0.55;0.40;;;;;;;12.02;51.86;151701.09;11212646;26;20078;-70
2024/04/17 12:40:27;;;;;;;0.68;0.45;;;;;;;11.81;48.60;151648.03;11214340;26;20000;-71
2024/04/17 12:45:29;;;;;;;2.08;0.50;;;;;;;11.51;50.61;151570.50;11214349;26;20031;-71
2024/04/17 12:50:31;;;;;;;1.38;0.50;;;;;;;11.18;52.54;151486.56;11214677;26;20000;-71
2024/04/17 12:55:33;;;;;;;2.30;0.93;;;;;;;11.22;53.77;151498.16;11213061;26;20360;-71
2024/04/17 13:00:37;;;;;;;0.95;0.40;;;;;;;11.36;52.83;151534.34;11213841;26;19999;-72
2024/04/17 13:05:40;;;;;;;0.90;0.43;;;;;;;11.42;51.63;151547.25;11212824;26;20013;-72
2024/04/17 13:10:42;;;;;;;0.50;0.50;;;;;;;11.52;49.50;151573.13;11213615;26;20402;-71
2024/04/17 13:15:53;;;;;;;1.15;0.60;;;;;;;10.78;54.02;151387.09;11213366;26;20003;-71
2024/04/17 13:20:56;;;;;;;0.50;0.50;;;;;;;10.33;55.87;151272.19;11214760;26;19996;-71
2024/04/17 13:26:00;;;;;;;1.77;0.70;;;;;;;10.27;57.97;151256.66;11213179;26;20347;-71
2024/04/17 13:31:05;;;;;;;0.80;0.50;;;;;;;9.76;59.43;151127.59;11212927;26;20004;-70
2024/04/17 13:36:10;;;;;;;1.00;0.55;;;;;;;9.41;69.81;151039.84;11212521;26;20144;-72
2024/04/17 13:41:14;;;;;;;4.20;2.92;;;;;;;9.08;69.04;150956.03;11211856;26;20360;-72
2024/04/17 13:46:16;;;;;;;0.90;0.60;;;;;;;8.76;74.33;150874.75;11210296;26;20007;-72
2024/04/17 13:51:19;;;;;;;20.02;10.55;;;;;;;8.33;72.91;150767.72;11210110;26;19995;-73
2024/04/17 13:56:23;;;;;;;18.80;13.65;;;;;;;7.90;75.53;150656.91;11211147;26;20040;-72
2024/04/17 14:01:25;;;;;;;17.17;6.88;;;;;;;7.68;73.25;150601.50;11210458;26;20084;-71
2024/04/17 14:06:27;;;;;;;4.00;2.00;;;;;;;7.50;72.53;150556.41;11210883;26;20425;-71
2024/04/17 14:11:29;;;;;;;0.70;0.60;;;;;;;7.49;71.09;150553.84;11210598;26;20000;-72
2024/04/17 14:16:31;;;;;;;10.43;7.38;;;;;;;7.86;75.01;150647.88;11210763;26;20085;-71
2024/04/17 14:21:33;;;;;;;1.23;0.68;;;;;;;8.22;72.14;150738.06;11210848;26;19999;-70
2024/04/17 14:26:34;;;;;;;0.43;0.43;;;;;;;8.75;71.67;150872.19;11210515;26;20014;-71
2024/04/17 14:31:37;;;;;;;1.30;0.50;;;;;;;9.05;68.84;150949.56;11209599;26;19999;-71
2024/04/17 14:36:39;;;;;;;0.75;0.50;;;;;;;9.34;64.69;151023.09;11210276;26;20011;-72
2024/04/17 14:41:41;;;;;;;1.15;1.00;;;;;;;9.45;68.53;151050.16;11210215;26;20004;-72
2024/04/17 14:46:43;;;;;;;0.80;0.50;;;;;;;9.83;68.71;151145.66;11210025;26;19995;-72
2024/04/17 14:51:45;;;;;;;1.38;0.60;;;;;;;9.93;68.83;151170.19;11209574;26;20369;-72
2024/04/17 14:56:48;;;;;;;0.98;0.50;;;;;;;10.10;62.88;151214.06;11210471;26;20463;-71
2024/04/17 15:01:50;;;;;;;0.98;0.57;;;;;;;9.82;65.02;151144.34;11216889;26;20459;-71
2024/04/17 15:06:55;;;;;;;2.70;1.98;;;;;;;9.97;61.89;151180.50;11215543;26;20076;-72
2024/04/17 15:11:58;;;;;;;0.77;0.47;;;;;;;10.06;62.69;151203.75;11216591;26;20019;-71
2024/04/17 15:16:59;;;;;;;0.80;0.55;;;;;;;9.84;66.82;151149.53;11216621;26;20352;-72
2024/04/17 15:22:03;;;;;;;1.30;0.80;;;;;;;9.99;62.18;151186.94;11215879;26;19995;-71
2024/04/17 15:27:05;;;;;;;1.30;0.70;;;;;;;10.13;61.08;151221.78;11216646;26;20026;-72
2024/04/17 15:32:07;;;;;;;1.05;0.95;;;;;;;9.97;63.26;151180.50;11216314;26;19999;-72
2024/04/17 15:37:10;;;;;;;1.17;0.65;;;;;;;10.24;61.87;151250.25;11215309;26;20077;-72
2024/04/17 15:42:12;;;;;;;4.53;3.92;;;;;;;10.20;58.10;151238.56;11214423;26;20006;-71
2024/04/17 15:47:16;;;;;;;1.85;1.40;;;;;;;10.16;58.81;151229.53;11214316;26;20088;-72
2024/04/17 15:52:17;;;;;;;1.00;0.60;;;;;;;10.11;57.16;151217.91;11214704;26;19996;-71
2024/04/17 15:57:21;;;;;;;2.40;1.50;;;;;;;9.92;59.48;151168.91;11214257;26;20015;-73
2024/04/17 16:02:23;;;;;;;0.85;0.80;;;;;;;9.63;61.48;151094.03;11213805;26;20003;-74
2024/04/17 16:07:25;;;;;;;2.65;1.45;;;;;;;9.89;59.87;151159.84;11216680;26;20078;-73
2024/04/17 16:12:30;;;;;;;1.27;0.98;;;;;;;9.95;60.77;151175.31;11217232;26;20003;-72
2024/04/17 16:17:31;;;;;;;1.13;0.90;;;;;;;9.81;61.18;151141.78;11217796;26;20026;-72
2024/04/17 16:22:33;;;;;;;2.40;1.50;;;;;;;9.68;64.24;151106.94;11169298;26;20003;-72
2024/04/17 16:27:35;;;;;;;2.05;1.52;;;;;;;9.74;61.46;151123.72;11193336;26;20000;-72
2024/04/17 16:32:39;;;;;;;2.30;1.30;;;;;;;9.63;63.35;151095.31;11071263;26;20016;-72
2024/04/17 16:37:41;;;;;;;1.25;0.80;;;;;;;9.76;62.47;151127.59;11126173;26;20368;-74
2024/04/17 16:42:42;;;;;;;2.42;1.30;;;;;;;9.72;63.03;151117.25;11142730;26;20040;-73
2024/04/17 16:47:47;;;;;;;1.77;1.27;;;;;;;9.79;63.16;151135.34;11090258;26;20016;-73
2024/04/17 16:52:49;;;;;;;5.97;1.23;;;;;;;9.48;63.46;151056.63;11097912;26;20503;-72
2024/04/17 16:57:51;;;;;;;0.90;0.50;;;;;;;9.32;63.74;151017.91;11214716;26;20007;-71
2024/04/17 17:02:53;;;;;;;0.85;0.70;;;;;;;9.14;63.74;150970.19;11192137;26;20004;-72
2024/04/17 17:07:56;;;;;;;1.25;1.00;;;;;;;8.88;64.23;150905.72;11143108;26;20018;-72
2024/04/17 17:13:01;;;;;;;2.92;1.58;;;;;;;8.78;61.85;150879.94;11111887;26;20408;-72
2024/04/17 17:18:04;;;;;;;3.15;1.88;;;;;;;8.55;62.85;150823.22;11142081;26;20032;-71
2024/04/17 17:23:06;;;;;;;2.78;1.25;;;;;;;8.57;59.16;150828.34;11088068;26;20001;-72
2024/04/17 17:28:08;;;;;;;1.95;1.00;;;;;;;8.65;59.46;150846.41;11069026;26;20005;-71
2024/04/17 17:33:11;;;;;;;1.50;0.98;;;;;;;8.68;59.82;150854.16;11069851;26;20084;-71
2024/04/17 17:38:13;;;;;;;1.80;0.95;;;;;;;8.59;60.72;150833.53;11070820;26;20009;-71
2024/04/17 17:43:15;;;;;;;2.13;0.60;;;;;;;8.77;58.05;150878.66;11068533;26;20008;-72
2024/04/17 17:48:16;;;;;;;1.50;0.80;;;;;;;8.49;60.67;150807.72;11070161;26;19997;-72
2024/04/17 17:53:19;;;;;;;0.57;0.57;;;;;;;8.37;64.58;150775.47;11069103;26;20468;-72
2024/04/17 17:58:21;;;;;;;1.52;1.42;;;;;;;8.25;73.04;150745.81;11071957;26;20094;-72
2024/04/17 18:03:25;;;;;;;2.63;2.15;;;;;;;8.02;76.90;150687.84;11070141;26;20358;-72
2024/04/17 18:08:29;;;;;;;2.60;2.13;;;;;;;8.07;76.74;150700.72;11069712;26;20476;-71
2024/04/17 18:13:32;;;;;;;1.38;1.27;;;;;;;7.83;77.92;150640.13;11121871;26;20001;-71
2024/04/17 18:18:35;;;;;;;1.40;1.23;;;;;;;7.73;79.06;150615.66;11070803;26;20009;-72
2024/04/17 18:23:39;;;;;;;2.88;1.38;;;;;;;7.50;80.38;150556.41;11069992;26;20005;-72
2024/04/17 18:28:42;;;;;;;1.92;1.20;;;;;;;7.44;80.54;150540.97;11071760;26;20116;-72
2024/04/17 18:33:46;;;;;;;1.55;1.40;;;;;;;7.25;81.63;150493.28;11075757;26;20056;-72
2024/04/17 18:38:50;;;;;;;1.30;1.20;;;;;;;7.45;80.09;150544.81;11077067;26;20005;-72
2024/04/17 18:43:54;;;;;;;1.13;0.98;;;;;;;7.31;80.60;150510.03;11078520;26;20001;-73
2024/04/17 18:48:58;;;;;;;1.35;1.15;;;;;;;7.30;80.57;150506.16;11076592;26;19997;-71
2024/04/17 18:54:00;;;;;;;1.48;1.17;;;;;;;7.18;81.53;150475.28;11076204;26;20017;-73
2024/04/17 18:59:02;;;;;;;1.58;1.27;;;;;;;7.25;81.46;150494.56;11073393;26;20015;-72
2024/04/17 19:04:05;;;;;;;1.63;1.38;;;;;;;7.19;81.22;150477.84;11072249;26;20005;-73
2024/04/17 19:09:06;;;;;;;1.38;0.90;;;;;;;7.20;80.74;150480.41;11074404;26;20008;-72
2024/04/17 19:14:08;;;;;;;1.35;1.02;;;;;;;7.08;80.43;150452.09;11072713;26;20016;-71
2024/04/17 19:19:13;;;;;;;1.02;0.93;;;;;;;7.12;80.44;150459.78;11074133;26;20004;-73
2024/04/17 19:24:15;;;;;;;0.90;0.88;;;;;;;6.88;80.87;150400.59;11071516;26;20071;-71
2024/04/17 19:29:17;;;;;;;1.50;0.93;;;;;;;6.91;80.93;150407.03;11070906;26;20020;-72
2024/04/17 19:34:39;;;;;;;1.70;1.00;;;;;;;6.88;80.25;150399.31;11071551;26;20079;-72
2024/04/17 19:39:42;;;;;;;1.65;1.27;;;;;;;6.86;80.53;150395.41;11072329;26;20045;-72
2024/04/17 19:44:44;;;;;;;1.20;1.02;;;;;;;6.70;81.35;150355.53;11040570;26;20033;-72
2024/04/17 19:49:46;;;;;;;1.00;0.95;;;;;;;6.47;83.48;150297.59;11071936;26;20009;-72
2024/04/17 19:54:48;;;;;;;1.02;0.93;;;;;;;6.22;85.76;150234.53;11071959;26;19997;-72
2024/04/17 19:59:50;;;;;;;1.05;0.98;;;;;;;6.16;86.54;150217.81;11072075;26;20469;-73
2024/04/17 20:04:51;;;;;;;1.10;1.00;;;;;;;5.95;88.17;150166.34;11072311;26;20344;-72
2024/04/17 20:09:55;;;;;;;4.70;1.17;;;;;;;5.93;88.56;150159.91;11073842;26;20082;-72
2024/04/17 20:14:57;;;;;;;2.60;1.45;;;;;;;5.90;89.07;150153.44;11070354;26;20001;-72
2024/04/17 20:19:59;;;;;;;1.95;1.30;;;;;;;5.85;89.33;150139.31;11068949;26;20127;-72
2024/04/17 20:25:01;;;;;;;1.50;1.17;;;;;;;5.72;89.81;150108.41;11068360;26;20079;-71
2024/04/17 20:30:03;;;;;;;1.95;1.70;;;;;;;5.81;90.66;150130.28;11068870;26;20005;-72
2024/04/17 20:35:05;;;;;;;1.90;1.38;;;;;;;5.86;90.83;150143.16;11124267;26;20015;-72
2024/04/17 20:40:07;;;;;;;1.70;1.30;;;;;;;5.74;92.15;150112.25;11142767;26;20085;-72
2024/04/17 20:45:20;;;;;;;2.25;1.27;;;;;;;5.79;92.09;150125.13;11140542;26;19992;-72
2024/04/17 20:50:22;;;;;;;2.20;1.58;;;;;;;5.66;93.01;150092.94;11142025;26;20012;-71
2024/04/17 20:55:24;;;;;;;1.90;1.35;;;;;;;5.60;93.77;150077.53;11141626;26;20006;-72
2024/04/17 21:00:26;;;;;;;1.88;1.65;;;;;;;5.57;93.51;150071.09;11139473;26;20359;-71
2024/04/17 21:05:28;;;;;;;1.80;1.52;;;;;;;5.67;93.03;150095.56;11141277;26;20000;-71
2024/04/17 21:10:30;;;;;;;2.47;1.83;;;;;;;5.48;94.54;150047.94;11137593;26;20058;-71
2024/04/17 21:15:32;;;;;;;1.50;1.40;;;;;;;5.40;96.01;150027.41;11139136;26;20001;-72
2024/04/17 21:20:34;;;;;;;2.15;1.85;;;;;;;5.35;96.41;150013.22;11139875;26;20004;-72
2024/04/17 21:25:36;;;;;;;2.00;1.70;;;;;;;5.34;97.59;150010.66;11138464;26;20073;-72
2024/04/17 21:30:39;;;;;;;3.92;2.20;;;;;;;5.30;97.17;150002.94;11138155;26;20036;-71
2024/04/17 21:35:41;;;;;;;2.42;1.83;;;;;;;5.13;98.81;149959.22;11138321;26;20073;-71
2024/04/17 21:40:56;;;;;;;2.42;2.17;;;;;;;5.07;100.00;149943.81;11138460;26;20000;-71
2024/04/17 21:46:05;;;;;;;3.22;2.33;;;;;;;5.14;99.68;149960.53;11138726;26;20054;-71
2024/04/17 21:51:07;;;;;;;2.83;2.08;;;;;;;5.13;98.91;149959.22;11136375;26;20016;-71
2024/04/17 21:56:12;;;;;;;3.33;2.60;;;;;;;5.18;98.25;149970.78;11137013;26;20016;-73
2024/04/17 22:01:14;;;;;;;1.92;1.77;;;;;;;5.12;98.83;149956.66;11134812;26;20000;-71
2024/04/17 22:06:16;;;;;;;2.08;1.80;;;;;;;4.99;100.00;149923.22;11134321;26;20015;-71
2024/04/17 22:11:18;;;;;;;2.55;2.13;;;;;;;5.38;97.88;150022.22;11134479;26;20363;-70
2024/04/17 22:16:20;;;;;;;2.65;2.40;;;;;;;5.00;99.14;149927.13;11135972;26;20004;-71
2024/04/17 22:21:21;;;;;;;3.03;2.72;;;;;;;4.76;100.00;149866.66;11136037;26;20110;-71
2024/04/17 22:26:23;;;;;;;3.30;2.25;;;;;;;4.66;100.00;149839.69;11135961;26;20015;-71
2024/04/17 22:31:25;;;;;;;2.38;2.17;;;;;;;4.55;100.00;149813.97;11133946;26;19996;-70
2024/04/17 22:36:27;;;;;;;1.90;1.63;;;;;;;4.67;100.00;149843.53;11135624;26;20104;-71
2024/04/17 22:41:29;;;;;;;3.65;2.40;;;;;;;4.69;100.00;149847.38;11135402;26;20449;-73
2024/04/17 22:46:31;;;;;;;2.55;2.05;;;;;;;4.73;100.00;149857.66;11133172;26;20000;-71
2024/04/17 22:51:33;;;;;;;3.33;2.70;;;;;;;5.05;98.96;149938.69;11135759;26;20000;-71
2024/04/17 22:56:35;;;;;;;2.33;2.08;;;;;;;4.64;100.00;149835.81;11134792;26;20008;-70
2024/04/17 23:01:38;;;;;;;3.22;2.60;;;;;;;4.73;100.00;149857.66;11134596;26;20032;-71
2024/04/17 23:06:40;;;;;;;4.20;2.90;;;;;;;4.59;100.00;149821.69;11134470;26;20004;-72
2024/04/17 23:11:42;;;;;;;2.75;2.33;;;;;;;4.28;100.00;149745.88;11134534;26;20016;-71
2024/04/17 23:16:44;;;;;;;2.75;2.35;;;;;;;4.09;100.00;149697.06;11134333;26;20019;-71
2024/04/17 23:21:46;;;;;;;2.80;2.42;;;;;;;4.33;100.00;149757.44;11141806;26;20000;-72
2024/04/17 23:26:48;;;;;;;3.75;2.75;;;;;;;4.30;100.00;149751.03;11142779;26;20078;-71
2024/04/17 23:31:50;;;;;;;3.60;3.28;;;;;;;3.95;100.00;149662.41;11141555;26;20070;-72